sensor_id;sensor_type;location;lat;lon;timestamp;temperature;humidity
74822;DHT22;63353;48.702;8.884;2023-08-07T00:01:55;9.80;99.90
74822;DHT22;63353;48.702;8.884;2023-08-07T00:04:27;9.80;99.90
74822;DHT22;63353;48.702;8.884;2023-08-07T00:06:53;9.80;99.90
74822;DHT22;63353;48.702;8.884;2023-08-07T00:09:25;9.80;99.90
74822;DHT22;63353;48.702;8.884;2023-08-07T00:11:53;9.80;99.90
74822;DHT22;63353;48.702;8.884;2023-08-07T00:14:19;9.90;99.90
74822;DHT22;63353;48.702;8.884;2023-08-07T00:16:44;9.90;99.90
74822;DHT22;63353;48.702;8.884;2023-08-07T00:19:16;9.80;99.90
74822;DHT22;63353;48.702;8.884;2023-08-07T00:21:42;9.90;99.90
74822;DHT22;63353;48.702;8.884;2023-08-07T00:24:10;9.90;99.90
74822;DHT22;63353;48.702;8.884;2023-08-07T00:26:39;9.90;99.90
74822;DHT22;63353;48.702;8.884;2023-08-07T00:29:13;10.00;99.90
74822;DHT22;63353;48.702;8.884;2023-08-07T00:31:42;9.90;99.90
74822;DHT22;63353;48.702;8.884;2023-08-07T00:34:07;9.90;99.90
74822;DHT22;63353;48.702;8.884;2023-08-07T00:36:35;9.90;99.90
74822;DHT22;63353;48.702;8.884;2023-08-07T00:39:01;9.90;99.90
74822;DHT22;63353;48.702;8.884;2023-08-07T00:41:29;9.90;99.90
74822;DHT22;63353;48.702;8.884;2023-08-07T00:44:00;9.90;99.90
74822;DHT22;63353;48.702;8.884;2023-08-07T00:46:30;9.90;99.90
74822;DHT22;63353;48.702;8.884;2023-08-07T00:49:02;9.90;99.90
74822;DHT22;63353;48.702;8.884;2023-08-07T00:51:32;9.90;99.90
74822;DHT22;63353;48.702;8.884;2023-08-07T00:53:58;9.90;99.90
74822;DHT22;63353;48.702;8.884;2023-08-07T00:56:29;9.90;99.90
74822;DHT22;63353;48.702;8.884;2023-08-07T00:58:59;9.90;99.90
74822;DHT22;63353;48.702;8.884;2023-08-07T01:01:25;9.90;99.90
74822;DHT22;63353;48.702;8.884;2023-08-07T01:04:03;9.90;99.90
74822;DHT22;63353;48.702;8.884;2023-08-07T01:06:29;10.00;99.90
74822;DHT22;63353;48.702;8.884;2023-08-07T01:08:55;10.00;99.90
74822;DHT22;63353;48.702;8.884;2023-08-07T01:11:46;10.10;99.90
74822;DHT22;63353;48.702;8.884;2023-08-07T01:17:16;10.00;99.90
74822;DHT22;63353;48.702;8.884;2023-08-07T01:19:46;10.00;99.90
74822;DHT22;63353;48.702;8.884;2023-08-07T01:22:14;9.90;99.90
74822;DHT22;63353;48.702;8.884;2023-08-07T01:24:50;9.90;99.90
74822;DHT22;63353;48.702;8.884;2023-08-07T01:29:59;9.90;99.90
74822;DHT22;63353;48.702;8.884;2023-08-07T01:35:23;10.10;99.90
74822;DHT22;63353;48.702;8.884;2023-08-07T01:37:54;10.10;99.90
74822;DHT22;63353;48.702;8.884;2023-08-07T01:40:24;10.20;99.90
74822;DHT22;63353;48.702;8.884;2023-08-07T01:42:50;10.10;99.90
74822;DHT22;63353;48.702;8.884;2023-08-07T01:45:25;10.10;99.90
74822;DHT22;63353;48.702;8.884;2023-08-07T01:47:53;10.10;99.90
74822;DHT22;63353;48.702;8.884;2023-08-07T01:50:23;10.00;99.90
74822;DHT22;63353;48.702;8.884;2023-08-07T01:52:49;10.10;99.90
74822;DHT22;63353;48.702;8.884;2023-08-07T01:55:17;10.10;99.90
74822;DHT22;63353;48.702;8.884;2023-08-07T01:57:44;10.00;99.90
74822;DHT22;63353;48.702;8.884;2023-08-07T02:00:21;10.00;99.90
74822;DHT22;63353;48.702;8.884;2023-08-07T02:02:47;10.00;99.90
74822;DHT22;63353;48.702;8.884;2023-08-07T02:05:16;10.00;99.90
74822;DHT22;63353;48.702;8.884;2023-08-07T02:07:43;10.00;99.90
74822;DHT22;63353;48.702;8.884;2023-08-07T02:10:11;10.00;99.90
74822;DHT22;63353;48.702;8.884;2023-08-07T02:12:40;10.00;99.90
74822;DHT22;63353;48.702;8.884;2023-08-07T02:15:06;10.10;99.90
74822;DHT22;63353;48.702;8.884;2023-08-07T02:17:32;10.10;99.90
74822;DHT22;63353;48.702;8.884;2023-08-07T02:20:06;10.10;99.90
74822;DHT22;63353;48.702;8.884;2023-08-07T02:22:31;10.10;99.90
74822;DHT22;63353;48.702;8.884;2023-08-07T02:25:03;10.10;99.90
74822;DHT22;63353;48.702;8.884;2023-08-07T02:27:32;10.10;99.90
74822;DHT22;63353;48.702;8.884;2023-08-07T02:29:57;10.10;99.90
74822;DHT22;63353;48.702;8.884;2023-08-07T02:32:26;10.10;99.90
74822;DHT22;63353;48.702;8.884;2023-08-07T02:34:52;10.10;99.90
74822;DHT22;63353;48.702;8.884;2023-08-07T02:37:18;10.10;99.90
74822;DHT22;63353;48.702;8.884;2023-08-07T02:39:44;10.10;99.90
74822;DHT22;63353;48.702;8.884;2023-08-07T02:42:12;10.10;99.90
74822;DHT22;63353;48.702;8.884;2023-08-07T02:44:38;10.10;99.90
74822;DHT22;63353;48.702;8.884;2023-08-07T02:47:04;10.10;99.90
74822;DHT22;63353;48.702;8.884;2023-08-07T02:49:33;10.00;99.90
74822;DHT22;63353;48.702;8.884;2023-08-07T02:51:58;10.10;99.90
74822;DHT22;63353;48.702;8.884;2023-08-07T02:54:24;10.00;99.90
74822;DHT22;63353;48.702;8.884;2023-08-07T02:56:53;10.00;99.90
74822;DHT22;63353;48.702;8.884;2023-08-07T02:59:21;10.00;99.90
74822;DHT22;63353;48.702;8.884;2023-08-07T03:01:47;9.90;99.90
74822;DHT22;63353;48.702;8.884;2023-08-07T03:04:13;9.90;99.90
74822;DHT22;63353;48.702;8.884;2023-08-07T03:06:38;9.90;99.90
74822;DHT22;63353;48.702;8.884;2023-08-07T03:09:04;9.90;99.90
74822;DHT22;63353;48.702;8.884;2023-08-07T03:11:32;9.80;99.90
74822;DHT22;63353;48.702;8.884;2023-08-07T03:14:13;9.80;99.90
74822;DHT22;63353;48.702;8.884;2023-08-07T03:16:45;9.80;99.90
74822;DHT22;63353;48.702;8.884;2023-08-07T03:19:11;9.80;99.90
74822;DHT22;63353;48.702;8.884;2023-08-07T03:21:46;9.80;99.90
74822;DHT22;63353;48.702;8.884;2023-08-07T03:24:14;9.80;99.90
74822;DHT22;63353;48.702;8.884;2023-08-07T03:26:46;9.70;99.90
74822;DHT22;63353;48.702;8.884;2023-08-07T03:29:13;9.70;99.90
74822;DHT22;63353;48.702;8.884;2023-08-07T03:31:41;9.70;99.90
74822;DHT22;63353;48.702;8.884;2023-08-07T03:34:10;9.60;99.90
74822;DHT22;63353;48.702;8.884;2023-08-07T03:36:39;9.60;99.90
74822;DHT22;63353;48.702;8.884;2023-08-07T03:39:11;9.50;99.90
74822;DHT22;63353;48.702;8.884;2023-08-07T03:41:40;9.60;99.90
74822;DHT22;63353;48.702;8.884;2023-08-07T03:44:09;9.60;99.90
74822;DHT22;63353;48.702;8.884;2023-08-07T03:46:37;9.80;99.90
74822;DHT22;63353;48.702;8.884;2023-08-07T03:49:03;9.80;99.90
74822;DHT22;63353;48.702;8.884;2023-08-07T03:51:29;9.70;99.90
74822;DHT22;63353;48.702;8.884;2023-08-07T03:53:55;9.70;99.90
74822;DHT22;63353;48.702;8.884;2023-08-07T03:56:21;9.60;99.90
74822;DHT22;63353;48.702;8.884;2023-08-07T03:58:47;9.70;99.90
74822;DHT22;63353;48.702;8.884;2023-08-07T04:01:14;9.70;99.90
74822;DHT22;63353;48.702;8.884;2023-08-07T04:03:43;9.80;99.90
74822;DHT22;63353;48.702;8.884;2023-08-07T04:06:09;9.90;99.90
74822;DHT22;63353;48.702;8.884;2023-08-07T04:08:42;9.90;99.90
74822;DHT22;63353;48.702;8.884;2023-08-07T04:11:16;9.80;99.90
74822;DHT22;63353;48.702;8.884;2023-08-07T04:13:48;9.80;99.90
74822;DHT22;63353;48.702;8.884;2023-08-07T04:16:20;9.70;99.90
74822;DHT22;63353;48.702;8.884;2023-08-07T04:19:03;9.60;99.90
74822;DHT22;63353;48.702;8.884;2023-08-07T04:21:38;9.60;99.90
74822;DHT22;63353;48.702;8.884;2023-08-07T04:24:04;9.50;99.90
74822;DHT22;63353;48.702;8.884;2023-08-07T04:26:35;9.40;99.90
74822;DHT22;63353;48.702;8.884;2023-08-07T04:29:02;9.40;99.90
74822;DHT22;63353;48.702;8.884;2023-08-07T04:31:28;9.40;99.90
74822;DHT22;63353;48.702;8.884;2023-08-07T04:34:01;9.30;99.90
74822;DHT22;63353;48.702;8.884;2023-08-07T04:36:30;9.30;99.90
74822;DHT22;63353;48.702;8.884;2023-08-07T04:39:01;9.30;99.90
74822;DHT22;63353;48.702;8.884;2023-08-07T04:41:27;9.30;99.90
74822;DHT22;63353;48.702;8.884;2023-08-07T04:43:56;9.40;99.90
74822;DHT22;63353;48.702;8.884;2023-08-07T04:46:22;9.50;99.90
74822;DHT22;63353;48.702;8.884;2023-08-07T04:48:56;9.50;99.90
74822;DHT22;63353;48.702;8.884;2023-08-07T04:51:21;9.60;99.90
74822;DHT22;63353;48.702;8.884;2023-08-07T04:53:48;9.60;99.90
74822;DHT22;63353;48.702;8.884;2023-08-07T04:56:16;9.60;99.90
74822;DHT22;63353;48.702;8.884;2023-08-07T04:58:42;9.60;99.90
74822;DHT22;63353;48.702;8.884;2023-08-07T05:01:20;9.60;99.90
74822;DHT22;63353;48.702;8.884;2023-08-07T05:03:46;9.70;99.90
74822;DHT22;63353;48.702;8.884;2023-08-07T05:06:20;9.70;99.90
74822;DHT22;63353;48.702;8.884;2023-08-07T05:08:52;9.80;99.90
74822;DHT22;63353;48.702;8.884;2023-08-07T05:11:18;9.80;99.90
74822;DHT22;63353;48.702;8.884;2023-08-07T05:13:45;9.70;99.90
74822;DHT22;63353;48.702;8.884;2023-08-07T05:16:14;9.80;99.90
74822;DHT22;63353;48.702;8.884;2023-08-07T05:18:40;9.80;99.90
74822;DHT22;63353;48.702;8.884;2023-08-07T05:21:14;9.90;99.90
74822;DHT22;63353;48.702;8.884;2023-08-07T05:23:40;10.00;99.90
74822;DHT22;63353;48.702;8.884;2023-08-07T05:26:16;10.10;99.90
74822;DHT22;63353;48.702;8.884;2023-08-07T05:28:45;10.30;99.90
74822;DHT22;63353;48.702;8.884;2023-08-07T05:31:11;10.50;99.90
74822;DHT22;63353;48.702;8.884;2023-08-07T05:33:42;10.60;99.90
74822;DHT22;63353;48.702;8.884;2023-08-07T05:36:08;10.70;99.90
74822;DHT22;63353;48.702;8.884;2023-08-07T05:38:36;10.70;99.90
74822;DHT22;63353;48.702;8.884;2023-08-07T05:41:02;10.80;99.90
74822;DHT22;63353;48.702;8.884;2023-08-07T05:43:33;10.80;99.90
74822;DHT22;63353;48.702;8.884;2023-08-07T05:46:02;10.80;99.90
74822;DHT22;63353;48.702;8.884;2023-08-07T05:48:43;11.00;99.90
74822;DHT22;63353;48.702;8.884;2023-08-07T05:51:08;11.00;99.90
74822;DHT22;63353;48.702;8.884;2023-08-07T05:53:38;11.00;99.90
74822;DHT22;63353;48.702;8.884;2023-08-07T05:56:09;11.10;99.90
74822;DHT22;63353;48.702;8.884;2023-08-07T05:58:35;11.10;99.90
74822;DHT22;63353;48.702;8.884;2023-08-07T06:01:00;11.10;99.90
74822;DHT22;63353;48.702;8.884;2023-08-07T06:03:29;11.10;99.90
74822;DHT22;63353;48.702;8.884;2023-08-07T06:05:57;11.10;99.90
74822;DHT22;63353;48.702;8.884;2023-08-07T06:08:23;11.10;99.90
74822;DHT22;63353;48.702;8.884;2023-08-07T06:10:54;11.10;99.90
74822;DHT22;63353;48.702;8.884;2023-08-07T06:13:20;11.20;99.90
74822;DHT22;63353;48.702;8.884;2023-08-07T06:15:51;11.30;99.90
74822;DHT22;63353;48.702;8.884;2023-08-07T06:18:17;11.30;99.90
74822;DHT22;63353;48.702;8.884;2023-08-07T06:20:49;11.40;99.90
74822;DHT22;63353;48.702;8.884;2023-08-07T06:23:17;11.40;99.90
74822;DHT22;63353;48.702;8.884;2023-08-07T06:25:43;11.40;99.90
74822;DHT22;63353;48.702;8.884;2023-08-07T06:28:11;11.40;99.90
74822;DHT22;63353;48.702;8.884;2023-08-07T06:30:38;11.40;99.90
74822;DHT22;63353;48.702;8.884;2023-08-07T06:33:03;11.40;99.90
74822;DHT22;63353;48.702;8.884;2023-08-07T06:35:29;11.40;99.90
74822;DHT22;63353;48.702;8.884;2023-08-07T06:37:57;11.50;99.90
74822;DHT22;63353;48.702;8.884;2023-08-07T06:40:26;11.60;99.90
74822;DHT22;63353;48.702;8.884;2023-08-07T06:42:54;11.70;99.90
74822;DHT22;63353;48.702;8.884;2023-08-07T06:45:23;11.70;99.90
74822;DHT22;63353;48.702;8.884;2023-08-07T06:47:55;11.70;99.90
74822;DHT22;63353;48.702;8.884;2023-08-07T06:50:21;11.80;99.90
74822;DHT22;63353;48.702;8.884;2023-08-07T06:52:47;11.80;99.90
74822;DHT22;63353;48.702;8.884;2023-08-07T06:55:16;11.90;99.90
74822;DHT22;63353;48.702;8.884;2023-08-07T06:57:45;12.00;99.90
74822;DHT22;63353;48.702;8.884;2023-08-07T07:00:17;12.00;99.90
74822;DHT22;63353;48.702;8.884;2023-08-07T07:02:45;12.00;99.90
74822;DHT22;63353;48.702;8.884;2023-08-07T07:05:14;12.10;99.90
74822;DHT22;63353;48.702;8.884;2023-08-07T07:07:46;12.30;99.90
74822;DHT22;63353;48.702;8.884;2023-08-07T07:10:15;12.60;99.90
74822;DHT22;63353;48.702;8.884;2023-08-07T07:12:44;12.90;99.90
74822;DHT22;63353;48.702;8.884;2023-08-07T07:15:10;13.10;99.90
74822;DHT22;63353;48.702;8.884;2023-08-07T07:17:36;13.40;99.90
74822;DHT22;63353;48.702;8.884;2023-08-07T07:20:05;13.50;99.90
74822;DHT22;63353;48.702;8.884;2023-08-07T07:22:31;13.50;99.90
74822;DHT22;63353;48.702;8.884;2023-08-07T07:24:56;13.70;99.90
74822;DHT22;63353;48.702;8.884;2023-08-07T07:27:22;13.90;99.90
74822;DHT22;63353;48.702;8.884;2023-08-07T07:29:53;13.90;99.90
74822;DHT22;63353;48.702;8.884;2023-08-07T07:32:23;13.70;99.90
74822;DHT22;63353;48.702;8.884;2023-08-07T07:34:55;14.00;99.90
74822;DHT22;63353;48.702;8.884;2023-08-07T07:37:21;13.90;99.90
74822;DHT22;63353;48.702;8.884;2023-08-07T07:39:47;13.60;99.90
74822;DHT22;63353;48.702;8.884;2023-08-07T07:42:13;13.40;99.90
74822;DHT22;63353;48.702;8.884;2023-08-07T07:44:38;13.20;99.90
74822;DHT22;63353;48.702;8.884;2023-08-07T07:47:05;13.70;99.90
74822;DHT22;63353;48.702;8.884;2023-08-07T07:49:32;13.90;99.90
74822;DHT22;63353;48.702;8.884;2023-08-07T07:52:05;14.20;99.90
74822;DHT22;63353;48.702;8.884;2023-08-07T07:54:31;14.50;99.90
74822;DHT22;63353;48.702;8.884;2023-08-07T07:57:04;14.50;99.90
74822;DHT22;63353;48.702;8.884;2023-08-07T07:59:31;14.40;99.90
74822;DHT22;63353;48.702;8.884;2023-08-07T08:01:57;14.20;99.90
74822;DHT22;63353;48.702;8.884;2023-08-07T08:04:22;14.50;99.90
74822;DHT22;63353;48.702;8.884;2023-08-07T08:06:48;14.60;99.90
74822;DHT22;63353;48.702;8.884;2023-08-07T08:09:22;14.60;99.90
74822;DHT22;63353;48.702;8.884;2023-08-07T08:11:48;14.40;99.90
74822;DHT22;63353;48.702;8.884;2023-08-07T08:14:13;14.70;99.90
74822;DHT22;63353;48.702;8.884;2023-08-07T08:16:39;14.60;99.90
74822;DHT22;63353;48.702;8.884;2023-08-07T08:19:05;14.50;99.90
74822;DHT22;63353;48.702;8.884;2023-08-07T08:21:31;14.50;99.90
74822;DHT22;63353;48.702;8.884;2023-08-07T08:24:03;14.70;99.90
74822;DHT22;63353;48.702;8.884;2023-08-07T08:26:35;14.70;99.90
74822;DHT22;63353;48.702;8.884;2023-08-07T08:29:01;15.30;99.90
74822;DHT22;63353;48.702;8.884;2023-08-07T08:31:32;15.20;99.90
74822;DHT22;63353;48.702;8.884;2023-08-07T08:34:01;15.20;99.90
74822;DHT22;63353;48.702;8.884;2023-08-07T08:36:32;15.00;99.90
74822;DHT22;63353;48.702;8.884;2023-08-07T08:39:10;14.70;99.90
74822;DHT22;63353;48.702;8.884;2023-08-07T08:41:36;15.10;99.90
74822;DHT22;63353;48.702;8.884;2023-08-07T08:44:03;15.50;99.90
74822;DHT22;63353;48.702;8.884;2023-08-07T08:46:34;16.00;99.90
74822;DHT22;63353;48.702;8.884;2023-08-07T08:49:08;15.80;99.90
74822;DHT22;63353;48.702;8.884;2023-08-07T08:51:36;15.50;99.90
74822;DHT22;63353;48.702;8.884;2023-08-07T08:54:06;15.20;99.90
74822;DHT22;63353;48.702;8.884;2023-08-07T08:56:35;15.20;99.90
74822;DHT22;63353;48.702;8.884;2023-08-07T08:59:10;14.80;99.90
74822;DHT22;63353;48.702;8.884;2023-08-07T09:01:36;14.90;99.90
74822;DHT22;63353;48.702;8.884;2023-08-07T09:04:08;15.30;99.90
74822;DHT22;63353;48.702;8.884;2023-08-07T09:06:35;15.30;99.90
74822;DHT22;63353;48.702;8.884;2023-08-07T09:09:01;15.40;99.90
74822;DHT22;63353;48.702;8.884;2023-08-07T09:11:28;15.80;99.90
74822;DHT22;63353;48.702;8.884;2023-08-07T09:14:04;16.00;99.90
74822;DHT22;63353;48.702;8.884;2023-08-07T09:16:33;16.20;99.90
74822;DHT22;63353;48.702;8.884;2023-08-07T09:18:59;16.10;99.90
74822;DHT22;63353;48.702;8.884;2023-08-07T09:21:34;16.30;99.90
74822;DHT22;63353;48.702;8.884;2023-08-07T09:26:53;16.10;99.90
74822;DHT22;63353;48.702;8.884;2023-08-07T09:29:24;16.10;99.90
74822;DHT22;63353;48.702;8.884;2023-08-07T09:31:54;16.30;99.90
74822;DHT22;63353;48.702;8.884;2023-08-07T09:34:20;16.00;99.90
74822;DHT22;63353;48.702;8.884;2023-08-07T09:36:46;15.60;99.90
74822;DHT22;63353;48.702;8.884;2023-08-07T09:39:12;15.20;99.90
74822;DHT22;63353;48.702;8.884;2023-08-07T09:41:43;15.30;99.90
74822;DHT22;63353;48.702;8.884;2023-08-07T09:44:12;15.20;99.90
74822;DHT22;63353;48.702;8.884;2023-08-07T09:46:42;15.30;99.90
74822;DHT22;63353;48.702;8.884;2023-08-07T09:49:08;15.20;99.90
74822;DHT22;63353;48.702;8.884;2023-08-07T09:51:47;15.20;99.90
74822;DHT22;63353;48.702;8.884;2023-08-07T09:54:13;15.30;99.90
74822;DHT22;63353;48.702;8.884;2023-08-07T09:56:46;15.70;99.90
74822;DHT22;63353;48.702;8.884;2023-08-07T09:59:19;15.70;99.90
74822;DHT22;63353;48.702;8.884;2023-08-07T10:02:04;15.60;99.90
74822;DHT22;63353;48.702;8.884;2023-08-07T10:04:33;15.60;99.90
74822;DHT22;63353;48.702;8.884;2023-08-07T10:07:04;16.10;99.90
74822;DHT22;63353;48.702;8.884;2023-08-07T10:09:39;16.50;99.90
74822;DHT22;63353;48.702;8.884;2023-08-07T10:12:13;16.20;99.90
74822;DHT22;63353;48.702;8.884;2023-08-07T10:14:40;16.20;99.90
74822;DHT22;63353;48.702;8.884;2023-08-07T10:17:13;16.30;99.90
74822;DHT22;63353;48.702;8.884;2023-08-07T10:19:39;15.80;99.90
74822;DHT22;63353;48.702;8.884;2023-08-07T10:22:20;15.70;99.90
74822;DHT22;63353;48.702;8.884;2023-08-07T10:24:57;15.60;99.90
74822;DHT22;63353;48.702;8.884;2023-08-07T10:27:23;16.40;99.90
74822;DHT22;63353;48.702;8.884;2023-08-07T10:29:54;17.00;99.90
74822;DHT22;63353;48.702;8.884;2023-08-07T10:32:24;16.90;99.90
74822;DHT22;63353;48.702;8.884;2023-08-07T10:34:51;16.90;99.90
74822;DHT22;63353;48.702;8.884;2023-08-07T10:37:46;16.80;99.90
74822;DHT22;63353;48.702;8.884;2023-08-07T10:40:12;16.70;99.90
74822;DHT22;63353;48.702;8.884;2023-08-07T10:43:11;16.80;99.90
74822;DHT22;63353;48.702;8.884;2023-08-07T10:45:46;16.40;99.90
74822;DHT22;63353;48.702;8.884;2023-08-07T10:48:21;16.30;99.90
74822;DHT22;63353;48.702;8.884;2023-08-07T10:53:48;16.50;99.90
74822;DHT22;63353;48.702;8.884;2023-08-07T10:56:42;16.50;99.90
74822;DHT22;63353;48.702;8.884;2023-08-07T10:59:12;16.20;99.90
74822;DHT22;63353;48.702;8.884;2023-08-07T11:04:09;16.30;99.90
74822;DHT22;63353;48.702;8.884;2023-08-07T11:06:36;16.40;99.90
74822;DHT22;63353;48.702;8.884;2023-08-07T11:09:09;16.60;99.90
74822;DHT22;63353;48.702;8.884;2023-08-07T11:11:58;16.70;99.90
74822;DHT22;63353;48.702;8.884;2023-08-07T11:14:24;17.20;99.90
74822;DHT22;63353;48.702;8.884;2023-08-07T11:16:50;17.30;99.90
74822;DHT22;63353;48.702;8.884;2023-08-07T11:19:17;18.00;99.90
74822;DHT22;63353;48.702;8.884;2023-08-07T11:21:44;17.80;99.90
74822;DHT22;63353;48.702;8.884;2023-08-07T11:24:13;17.60;99.90
74822;DHT22;63353;48.702;8.884;2023-08-07T11:26:43;17.10;99.90
74822;DHT22;63353;48.702;8.884;2023-08-07T11:29:09;16.70;99.90
74822;DHT22;63353;48.702;8.884;2023-08-07T11:31:37;16.30;99.90
74822;DHT22;63353;48.702;8.884;2023-08-07T11:34:03;16.00;99.90
74822;DHT22;63353;48.702;8.884;2023-08-07T11:36:32;15.80;99.90
74822;DHT22;63353;48.702;8.884;2023-08-07T11:39:06;15.70;99.90
74822;DHT22;63353;48.702;8.884;2023-08-07T11:41:37;15.50;99.90
74822;DHT22;63353;48.702;8.884;2023-08-07T11:44:10;15.50;99.90
74822;DHT22;63353;48.702;8.884;2023-08-07T11:46:47;15.40;99.90
74822;DHT22;63353;48.702;8.884;2023-08-07T11:49:16;15.30;99.90
74822;DHT22;63353;48.702;8.884;2023-08-07T11:51:45;15.20;99.90
74822;DHT22;63353;48.702;8.884;2023-08-07T11:54:14;15.00;99.90
74822;DHT22;63353;48.702;8.884;2023-08-07T11:56:41;15.00;99.90
74822;DHT22;63353;48.702;8.884;2023-08-07T11:59:16;15.00;99.90
74822;DHT22;63353;48.702;8.884;2023-08-07T12:01:45;14.90;99.90
74822;DHT22;63353;48.702;8.884;2023-08-07T12:04:14;14.80;99.90
74822;DHT22;63353;48.702;8.884;2023-08-07T12:07:01;14.70;99.90
74822;DHT22;63353;48.702;8.884;2023-08-07T12:09:28;14.60;99.90
74822;DHT22;63353;48.702;8.884;2023-08-07T12:11:57;14.50;99.90
74822;DHT22;63353;48.702;8.884;2023-08-07T12:14:27;14.40;99.90
74822;DHT22;63353;48.702;8.884;2023-08-07T12:16:54;14.40;99.90
74822;DHT22;63353;48.702;8.884;2023-08-07T12:19:34;14.50;99.90
74822;DHT22;63353;48.702;8.884;2023-08-07T12:22:07;14.70;99.90
74822;DHT22;63353;48.702;8.884;2023-08-07T12:24:41;15.00;99.90
74822;DHT22;63353;48.702;8.884;2023-08-07T12:27:08;15.30;99.90
74822;DHT22;63353;48.702;8.884;2023-08-07T12:29:37;15.30;99.90
74822;DHT22;63353;48.702;8.884;2023-08-07T12:32:06;15.30;99.90
74822;DHT22;63353;48.702;8.884;2023-08-07T12:34:34;15.20;99.90
74822;DHT22;63353;48.702;8.884;2023-08-07T12:37:04;14.90;99.90
74822;DHT22;63353;48.702;8.884;2023-08-07T12:39:39;14.80;99.90
74822;DHT22;63353;48.702;8.884;2023-08-07T12:42:07;14.70;99.90
74822;DHT22;63353;48.702;8.884;2023-08-07T12:44:36;14.50;99.90
74822;DHT22;63353;48.702;8.884;2023-08-07T12:47:01;14.20;99.90
74822;DHT22;63353;48.702;8.884;2023-08-07T12:49:27;14.20;99.90
74822;DHT22;63353;48.702;8.884;2023-08-07T12:51:53;14.30;99.90
74822;DHT22;63353;48.702;8.884;2023-08-07T12:54:22;14.40;99.90
74822;DHT22;63353;48.702;8.884;2023-08-07T12:56:48;14.70;99.90
74822;DHT22;63353;48.702;8.884;2023-08-07T12:59:22;15.10;99.90
74822;DHT22;63353;48.702;8.884;2023-08-07T13:01:48;15.70;99.90
74822;DHT22;63353;48.702;8.884;2023-08-07T13:04:13;16.20;99.90
74822;DHT22;63353;48.702;8.884;2023-08-07T13:06:41;16.60;99.90
74822;DHT22;63353;48.702;8.884;2023-08-07T13:09:07;16.60;99.90
74822;DHT22;63353;48.702;8.884;2023-08-07T13:11:38;16.30;99.90
74822;DHT22;63353;48.702;8.884;2023-08-07T13:14:06;16.10;99.90
74822;DHT22;63353;48.702;8.884;2023-08-07T13:16:47;15.80;99.90
74822;DHT22;63353;48.702;8.884;2023-08-07T13:19:15;15.60;99.90
74822;DHT22;63353;48.702;8.884;2023-08-07T13:21:43;15.50;99.90
74822;DHT22;63353;48.702;8.884;2023-08-07T13:24:15;15.50;99.90
74822;DHT22;63353;48.702;8.884;2023-08-07T13:26:44;15.70;99.90
74822;DHT22;63353;48.702;8.884;2023-08-07T13:29:18;16.30;99.90
74822;DHT22;63353;48.702;8.884;2023-08-07T13:31:44;17.40;99.90
74822;DHT22;63353;48.702;8.884;2023-08-07T13:34:12;18.40;99.90
74822;DHT22;63353;48.702;8.884;2023-08-07T13:36:38;19.00;99.90
74822;DHT22;63353;48.702;8.884;2023-08-07T13:39:04;19.60;99.90
74822;DHT22;63353;48.702;8.884;2023-08-07T13:41:33;20.10;99.90
74822;DHT22;63353;48.702;8.884;2023-08-07T13:43:59;19.90;99.90
74822;DHT22;63353;48.702;8.884;2023-08-07T13:46:27;19.50;99.90
74822;DHT22;63353;48.702;8.884;2023-08-07T13:49:00;18.80;99.90
74822;DHT22;63353;48.702;8.884;2023-08-07T13:51:28;19.10;99.90
74822;DHT22;63353;48.702;8.884;2023-08-07T13:53:54;18.50;99.90
74822;DHT22;63353;48.702;8.884;2023-08-07T13:56:20;18.30;99.90
74822;DHT22;63353;48.702;8.884;2023-08-07T13:59:04;18.00;99.90
74822;DHT22;63353;48.702;8.884;2023-08-07T14:01:33;18.10;99.90
74822;DHT22;63353;48.702;8.884;2023-08-07T14:04:00;17.90;99.90
74822;DHT22;63353;48.702;8.884;2023-08-07T14:06:26;18.70;99.90
74822;DHT22;63353;48.702;8.884;2023-08-07T14:09:01;18.70;99.90
74822;DHT22;63353;48.702;8.884;2023-08-07T14:11:27;18.40;99.90
74822;DHT22;63353;48.702;8.884;2023-08-07T14:14:01;18.90;99.90
74822;DHT22;63353;48.702;8.884;2023-08-07T14:16:27;18.70;99.90
74822;DHT22;63353;48.702;8.884;2023-08-07T14:18:55;18.60;99.90
74822;DHT22;63353;48.702;8.884;2023-08-07T14:21:26;19.00;99.90
74822;DHT22;63353;48.702;8.884;2023-08-07T14:23:52;19.80;99.90
74822;DHT22;63353;48.702;8.884;2023-08-07T14:26:23;19.00;99.90
74822;DHT22;63353;48.702;8.884;2023-08-07T14:28:52;18.30;99.90
74822;DHT22;63353;48.702;8.884;2023-08-07T14:31:18;17.50;99.90
74822;DHT22;63353;48.702;8.884;2023-08-07T14:33:55;17.00;99.90
74822;DHT22;63353;48.702;8.884;2023-08-07T14:36:40;16.90;99.90
74822;DHT22;63353;48.702;8.884;2023-08-07T14:39:15;16.60;99.90
74822;DHT22;63353;48.702;8.884;2023-08-07T14:41:44;16.60;99.90
74822;DHT22;63353;48.702;8.884;2023-08-07T14:44:30;16.40;99.90
74822;DHT22;63353;48.702;8.884;2023-08-07T14:47:14;16.20;99.90
74822;DHT22;63353;48.702;8.884;2023-08-07T14:49:43;16.00;99.90
74822;DHT22;63353;48.702;8.884;2023-08-07T14:52:15;16.20;99.90
74822;DHT22;63353;48.702;8.884;2023-08-07T14:54:43;16.40;99.90
74822;DHT22;63353;48.702;8.884;2023-08-07T14:57:09;16.60;99.90
74822;DHT22;63353;48.702;8.884;2023-08-07T14:59:38;16.80;99.90
74822;DHT22;63353;48.702;8.884;2023-08-07T15:02:04;17.00;99.90
74822;DHT22;63353;48.702;8.884;2023-08-07T15:04:36;17.60;99.90
74822;DHT22;63353;48.702;8.884;2023-08-07T15:07:09;19.40;99.90
74822;DHT22;63353;48.702;8.884;2023-08-07T15:09:35;19.50;99.90
74822;DHT22;63353;48.702;8.884;2023-08-07T15:12:07;19.10;99.90
74822;DHT22;63353;48.702;8.884;2023-08-07T15:14:33;18.80;99.90
74822;DHT22;63353;48.702;8.884;2023-08-07T15:17:08;18.50;99.90
74822;DHT22;63353;48.702;8.884;2023-08-07T15:19:33;18.10;99.90
74822;DHT22;63353;48.702;8.884;2023-08-07T15:22:02;17.90;99.90
74822;DHT22;63353;48.702;8.884;2023-08-07T15:24:34;18.00;99.90
74822;DHT22;63353;48.702;8.884;2023-08-07T15:27:00;18.20;99.90
74822;DHT22;63353;48.702;8.884;2023-08-07T15:29:29;18.10;99.90
74822;DHT22;63353;48.702;8.884;2023-08-07T15:32:07;19.20;99.90
74822;DHT22;63353;48.702;8.884;2023-08-07T15:34:35;18.90;99.90
74822;DHT22;63353;48.702;8.884;2023-08-07T15:37:02;18.80;99.90
74822;DHT22;63353;48.702;8.884;2023-08-07T15:39:28;18.40;99.90
74822;DHT22;63353;48.702;8.884;2023-08-07T15:42:03;18.20;99.90
74822;DHT22;63353;48.702;8.884;2023-08-07T15:44:31;19.50;99.90
74822;DHT22;63353;48.702;8.884;2023-08-07T15:46:57;22.10;99.90
74822;DHT22;63353;48.702;8.884;2023-08-07T15:49:25;24.20;99.90
74822;DHT22;63353;48.702;8.884;2023-08-07T15:51:51;25.60;99.90
74822;DHT22;63353;48.702;8.884;2023-08-07T15:54:23;24.50;99.90
74822;DHT22;63353;48.702;8.884;2023-08-07T15:56:48;23.50;99.90
74822;DHT22;63353;48.702;8.884;2023-08-07T15:59:18;21.70;99.90
74822;DHT22;63353;48.702;8.884;2023-08-07T16:01:50;22.20;99.90
74822;DHT22;63353;48.702;8.884;2023-08-07T16:04:19;23.50;99.90
74822;DHT22;63353;48.702;8.884;2023-08-07T16:06:44;23.60;99.90